Aviation Digital Data Service (ADDS)

Output produced by TAFs form (1811 UTC 20 July 2018)
found at http://www.aviationweather.gov/adds/tafs/
 
METAR text: ROYN 201800Z AUTO 35015KT 9999 BKN011 28/26 Q0999
Conditions at: ROYN (YONAGUNI AIRPORT, JP) observed 1800 UTC 20 July 2018
Temperature: 28.0°C (82°F)
Dewpoint: 26.0°C (79°F) [RH = 89%]
Pressure (altimeter): 29.50 inches Hg (999.0 mb)
Winds: from the N (350 degrees) at 17 MPH (15 knots; 7.8 m/s)
Visibility: 6 or more miles (10+ km)
Ceiling: 1100 feet AGL
Clouds: broken clouds at 1100 feet AGL
Weather: no significant weather observed at this time